Terminal Aerodrome Forecast
Issued by NWS

Home | Current Version | Previous Version | Text Only | Print | Product List | Glossary On
Versions: 1 2 3 4 5 6 7 8 9 10 11 12 13 14 15 16 17 18 19 20
000
FTUS41 KPBZ 061739
TAFAGC
TAF
KAGC 061739Z 0618/0718 VRB04KT P6SM VCSH SCT025 BKN035
      TEMPO 0618/0619 4SM -TSRA BKN030CB
     FM070000 21005KT P6SM BKN040=

USA.gov is the U.S. government's official web portal to all federal, state and local government web resources and services.